»·PEaware :: N800DW CYOD-KGTF

N800DW :: CYOD-KGTF

FLIGHT INFORMATION

Flight Status: Arrived
Operator: Privately registered:
United States
More flights under this callsign
Pilot: Scott L. (17677)
Aircraft: CESSNA 510 CITATION MUSTANG
(C510)
More flights by this aircraft type
Origin: CYOD Cold Lake
Canada
Destination: KGTF Great Falls Intl
United States
More flights between these airports :: More routes between these airports
Route: RYLEY YYC YQL V21 KYELL
File this flight plan on PilotEdge
Remarks:
Altitude:
(Current/Filed)
36,000ft
Speed:
(Current/Filed)
400kts
Departed: 09-Jul-19 05:40 AM
Arrived: 09-Jul-19 08:37 AM
Distance/Time
Traveled:
418nm/2:57
Distance/Time
To Go:
Arrived

Flight Plot

Page will automatically refresh every two minutes.

Flight plan parsing failed; only flown route is shown


Map Options




Map Legend


Flown Route
Filed Route
Departure Airport
Arrival Airport
Navaid (VOR, NDB)
Fix

Horizontal Profiles

Position Reports

Time Latitude Longitude Heading Altitude Ground
Speed
09-Jul-19 05:38 54.432105 -110.040367 259 13233ft 269kts
09-Jul-19 05:39 54.416968 -110.168227 259 15973ft 270kts
09-Jul-19 05:41 54.372386 -110.294725 232 19110ft 267kts
09-Jul-19 05:41 54.332704 -110.372615 231 21241ft 258kts
09-Jul-19 05:43 54.272250 -110.488688 231 22466ft 281kts
09-Jul-19 05:43 54.226973 -110.574751 231 23321ft 290kts
09-Jul-19 05:44 54.171524 -110.679661 230 24336ft 295kts
09-Jul-19 05:45 54.116828 -110.782707 230 25330ft 284kts
09-Jul-19 05:46 54.064288 -110.881268 230 26323ft 273kts
09-Jul-19 05:47 54.012812 -110.977503 230 27326ft 265kts
09-Jul-19 05:48 53.962450 -111.071235 230 28323ft 259kts
09-Jul-19 05:49 53.913548 -111.161904 230 29311ft 254kts
09-Jul-19 05:50 53.866401 -111.249011 231 30285ft 248kts
09-Jul-19 05:51 53.819920 -111.334617 230 31269ft 242kts
09-Jul-19 05:52 53.774438 -111.418003 231 32244ft 235kts
09-Jul-19 05:53 53.729959 -111.499343 231 33221ft 229kts
09-Jul-19 05:54 53.685052 -111.581281 231 34236ft 234kts
09-Jul-19 05:55 53.639959 -111.663198 230 35240ft 235kts
09-Jul-19 05:56 53.594953 -111.744665 230 36132ft 240kts
09-Jul-19 05:57 53.545073 -111.834990 230 36144ft 277kts
09-Jul-19 05:58 53.489727 -111.934380 229 36147ft 304kts
09-Jul-19 05:59 53.429907 -112.041373 229 36140ft 322kts
09-Jul-19 06:00 53.367378 -112.152684 229 36137ft 333kts
09-Jul-19 06:01 53.302720 -112.267244 229 36136ft 341kts
09-Jul-19 06:02 53.223933 -112.356853 208 36136ft 353kts
09-Jul-19 06:03 53.134345 -112.425323 208 36125ft 356kts
09-Jul-19 06:04 53.043797 -112.494496 207 36122ft 358kts
09-Jul-19 06:05 52.953192 -112.563017 205 36136ft 359kts
09-Jul-19 06:06 52.861831 -112.630997 205 36141ft 361kts
09-Jul-19 06:07 52.770525 -112.698884 205 36138ft 363kts
09-Jul-19 06:08 52.678508 -112.767138 205 36141ft 363kts
09-Jul-19 06:09 52.586223 -112.835229 205 36135ft 365kts
09-Jul-19 06:10 52.493626 -112.903476 205 36133ft 368kts
09-Jul-19 06:11 52.399992 -112.972352 204 36137ft 373kts
09-Jul-19 06:12 52.305011 -113.041735 203 36139ft 376kts
09-Jul-19 06:13 52.208944 -113.111162 203 36136ft 379kts
09-Jul-19 06:14 52.112737 -113.180503 204 36137ft 380kts
09-Jul-19 06:15 52.016290 -113.249805 204 36140ft 381kts
09-Jul-19 06:16 51.919357 -113.319113 204 36144ft 381kts
09-Jul-19 06:17 51.822285 -113.388265 204 36145ft 382kts
09-Jul-19 06:18 51.725003 -113.457151 204 36139ft 382kts
09-Jul-19 06:19 51.628013 -113.525550 203 36145ft 382kts
09-Jul-19 06:20 51.530982 -113.593653 204 36144ft 382kts
09-Jul-19 06:21 51.433760 -113.661583 203 36145ft 382kts
09-Jul-19 06:22 51.336861 -113.728950 203 36142ft 382kts
09-Jul-19 06:23 51.239665 -113.796201 203 36152ft 382kts
09-Jul-19 06:24 51.142392 -113.863043 200 36143ft 382kts
09-Jul-19 06:25 51.043355 -113.821009 151 36149ft 380kts
09-Jul-19 06:26 50.949985 -113.741551 153 36147ft 382kts
09-Jul-19 06:27 50.856644 -113.662977 155 36155ft 378kts
09-Jul-19 06:28 50.764574 -113.586520 154 36146ft 373kts
09-Jul-19 06:29 50.673068 -113.510456 154 36144ft 370kts
09-Jul-19 06:30 50.582527 -113.435415 154 36147ft 369kts
09-Jul-19 06:31 50.492369 -113.360878 154 36132ft 368kts
09-Jul-19 06:32 50.401982 -113.286598 155 36099ft 368kts
09-Jul-19 06:33 50.311453 -113.212409 155 36093ft 366kts
09-Jul-19 06:34 50.221266 -113.138884 155 36090ft 366kts
09-Jul-19 06:35 50.131372 -113.065832 155 36089ft 365kts
09-Jul-19 06:36 50.041150 -112.992828 155 36090ft 365kts
09-Jul-19 06:37 49.951472 -112.920678 155 36090ft 363kts
09-Jul-19 06:38 49.862483 -112.849293 155 36094ft 360kts
09-Jul-19 06:39 49.774258 -112.778862 155 36096ft 358kts
09-Jul-19 06:40 49.686628 -112.709350 156 36089ft 356kts
09-Jul-19 06:41 49.595758 -112.657018 171 36100ft 349kts
09-Jul-19 06:42 49.501014 -112.628943 170 36097ft 349kts
09-Jul-19 06:43 49.406125 -112.601129 170 36090ft 348kts
09-Jul-19 06:44 49.311568 -112.573584 170 36096ft 348kts
09-Jul-19 06:45 49.216520 -112.546175 170 36101ft 347kts
09-Jul-19 06:46 49.122206 -112.518949 171 36120ft 346kts
09-Jul-19 06:47 49.027237 -112.492417 169 36122ft 345kts
09-Jul-19 06:48 48.933961 -112.457518 162 36122ft 346kts
09-Jul-19 06:49 48.839899 -112.425787 165 36129ft 348kts
09-Jul-19 06:50 48.800725 -112.413890 166 36125ft 349kts
09-Jul-19 06:51 48.800725 -112.413890 166 36125ft 349kts
09-Jul-19 06:52 48.782917 -112.408520 166 36125ft 349kts
09-Jul-19 06:53 48.689271 -112.373647 144 36110ft 346kts
09-Jul-19 06:54 48.687828 -112.249050 44 36131ft 366kts
09-Jul-19 06:55 48.771929 -112.167612 53 36127ft 355kts
09-Jul-19 06:56 48.823091 -112.044046 65 36130ft 345kts
09-Jul-19 06:57 48.869711 -111.916777 65 36129ft 342kts
09-Jul-19 06:58 48.915713 -111.790412 65 36130ft 341kts
09-Jul-19 06:59 48.961612 -111.663891 65 36127ft 340kts
09-Jul-19 07:00 49.007285 -111.537409 66 36129ft 342kts
09-Jul-19 07:01 49.053632 -111.408129 66 36112ft 347kts
09-Jul-19 07:02 49.099858 -111.278398 66 36090ft 354kts
09-Jul-19 07:03 49.146478 -111.147202 65 36080ft 359kts
09-Jul-19 07:04 49.194178 -111.012902 66 36086ft 362kts
09-Jul-19 07:05 49.242138 -110.877055 66 36079ft 366kts
09-Jul-19 07:06 49.290264 -110.739087 67 36080ft 368kts
09-Jul-19 07:07 49.338484 -110.600811 67 36094ft 369kts
09-Jul-19 07:08 49.386381 -110.462318 67 36090ft 366kts
09-Jul-19 07:09 49.432943 -110.326824 69 36094ft 365kts
09-Jul-19 07:10 49.479868 -110.189856 68 36089ft 364kts
09-Jul-19 07:11 49.526746 -110.052160 68 36088ft 363kts
09-Jul-19 07:12 49.573377 -109.914490 68 36102ft 363kts
09-Jul-19 07:13 49.620113 -109.775830 68 36087ft 364kts
09-Jul-19 07:14 49.666700 -109.636903 68 36088ft 364kts
09-Jul-19 07:15 49.713299 -109.497098 68 36074ft 364kts
09-Jul-19 07:16 49.759449 -109.357790 68 36077ft 364kts
09-Jul-19 07:17 49.804925 -109.219952 69 36078ft 364kts
09-Jul-19 07:18 49.851083 -109.079325 69 36071ft 364kts
09-Jul-19 07:19 49.896939 -108.938597 69 36039ft 364kts
09-Jul-19 07:20 49.942463 -108.798209 69 36046ft 363kts
09-Jul-19 07:21 49.987908 -108.657113 69 36048ft 363kts
09-Jul-19 07:22 50.033011 -108.516331 69 36045ft 363kts
09-Jul-19 07:23 50.078534 -108.374480 63 36032ft 367kts
09-Jul-19 07:24 50.167340 -108.349459 319 36049ft 379kts
09-Jul-19 07:25 50.197757 -108.493786 270 36031ft 346kts
09-Jul-19 07:26 50.211298 -108.645934 286 36030ft 355kts
09-Jul-19 07:27 50.262811 -108.778427 298 36033ft 363kts
09-Jul-19 07:28 50.319937 -108.909502 297 36054ft 362kts
09-Jul-19 07:30 50.374151 -109.034342 298 36080ft 362kts
09-Jul-19 07:31 50.431604 -109.167066 297 36083ft 362kts
09-Jul-19 07:32 50.488106 -109.298878 298 36086ft 362kts
09-Jul-19 07:33 50.544109 -109.429756 298 36081ft 362kts
09-Jul-19 07:34 50.599915 -109.560859 298 36098ft 362kts
09-Jul-19 07:35 50.654511 -109.689901 297 36099ft 362kts
09-Jul-19 07:36 50.709850 -109.821324 297 36092ft 362kts
09-Jul-19 07:37 50.765118 -109.953277 297 36098ft 362kts
09-Jul-19 07:38 50.819973 -110.084754 297 36096ft 362kts
09-Jul-19 07:39 50.875183 -110.218053 297 36104ft 362kts
09-Jul-19 07:40 50.930617 -110.351780 296 36086ft 360kts
09-Jul-19 07:41 50.984837 -110.483941 296 36097ft 354kts
09-Jul-19 07:42 51.037805 -110.613815 296 36091ft 347kts
09-Jul-19 07:43 51.088817 -110.739357 295 36107ft 339kts
09-Jul-19 07:44 51.137848 -110.860594 295 36091ft 334kts
09-Jul-19 07:45 51.187230 -110.984196 296 36088ft 332kts
09-Jul-19 07:46 51.236329 -111.107641 299 36092ft 332kts
09-Jul-19 07:47 51.286054 -111.231269 299 36093ft 333kts
09-Jul-19 07:48 51.336082 -111.356678 299 36090ft 335kts
09-Jul-19 07:48 51.377516 -111.461524 299 36095ft 335kts
09-Jul-19 07:50 51.435500 -111.608690 300 36089ft 336kts
09-Jul-19 07:50 51.476197 -111.712739 298 36089ft 335kts
09-Jul-19 07:51 51.525838 -111.840246 299 36099ft 336kts
09-Jul-19 07:53 51.583625 -111.989208 299 36116ft 336kts
09-Jul-19 07:53 51.624791 -112.096025 299 36140ft 335kts
09-Jul-19 07:54 51.674338 -112.225095 299 36144ft 336kts
09-Jul-19 07:55 51.723431 -112.353765 298 36139ft 337kts
09-Jul-19 07:56 51.772571 -112.483311 299 36140ft 337kts
09-Jul-19 07:57 51.821656 -112.613041 299 36131ft 337kts
09-Jul-19 07:58 51.870608 -112.743132 298 36141ft 337kts
09-Jul-19 07:59 51.919200 -112.873524 299 36139ft 336kts
09-Jul-19 08:00 51.967385 -113.003853 300 36141ft 335kts
09-Jul-19 08:01 52.015510 -113.133143 301 36135ft 334kts
09-Jul-19 08:02 52.063611 -113.263115 301 36137ft 334kts
09-Jul-19 08:03 52.086943 -113.400548 242 36145ft 335kts
09-Jul-19 08:04 52.016263 -113.444771 192 36142ft 341kts
09-Jul-19 08:05 51.924652 -113.485883 198 36139ft 342kts
09-Jul-19 08:06 51.837732 -113.529110 198 36140ft 343kts
09-Jul-19 08:07 51.543496 -113.674116 198 36115ft 344kts
09-Jul-19 08:08 50.816943 -113.853608 156 36327ft 349kts
09-Jul-19 08:09 50.235167 -113.127789 180 36152ft 341kts
09-Jul-19 08:10 49.782413 -112.768181 157 36114ft 343kts
09-Jul-19 08:11 49.685916 -112.708444 154 36129ft 334kts
09-Jul-19 08:12 49.227370 -112.418376 180 36138ft 325kts
09-Jul-19 08:13 49.141385 -112.384346 160 36146ft 319kts
09-Jul-19 08:14 49.058911 -112.338655 159 36148ft 317kts
09-Jul-19 08:15 48.976506 -112.289842 156 36146ft 319kts
09-Jul-19 08:16 48.892740 -112.236509 155 35359ft 345kts
09-Jul-19 08:17 48.801780 -112.178842 156 33861ft 371kts
09-Jul-19 08:18 48.704559 -112.117850 156 32063ft 387kts
09-Jul-19 08:19 48.604406 -112.055163 156 30165ft 392kts
09-Jul-19 08:20 48.503232 -111.992138 155 28263ft 392kts
09-Jul-19 08:21 48.403123 -111.930004 155 26353ft 390kts
09-Jul-19 08:22 48.304188 -111.868818 155 24451ft 367kts
09-Jul-19 08:23 48.215264 -111.814135 155 22469ft 331kts
09-Jul-19 08:24 48.131029 -111.762368 154 20269ft 324kts
09-Jul-19 08:25 48.047976 -111.711530 155 18074ft 321kts
09-Jul-19 08:26 47.965322 -111.661165 155 15876ft 320kts
09-Jul-19 08:27 47.889856 -111.615321 155 13860ft 319kts
09-Jul-19 08:28 47.807868 -111.565685 155 11645ft 318kts
09-Jul-19 08:29 47.726889 -111.513415 139 9409ft 318kts
09-Jul-19 08:30 47.676128 -111.418783 129 7190ft 259kts
09-Jul-19 08:31 47.631924 -111.350609 141 6503ft 235kts
09-Jul-19 08:32 47.579979 -111.288681 151 5384ft 233kts
09-Jul-19 08:33 47.531911 -111.292666 219 4856ft 142kts
09-Jul-19 08:34 47.508256 -111.326377 228 4216ft 109kts
09-Jul-19 08:35 47.487098 -111.357659 227 3662ft 89kts
09-Jul-19 08:36 47.477762 -111.370206 136 3655ft 7kts
09-Jul-19 08:37 47.479330 -111.365064 4 3657ft 0kts
09-Jul-19 08:38 47.479329 -111.365064 4 3657ft 0kts
09-Jul-19 08:39 47.479329 -111.365064 4 3657ft 0kts
09-Jul-19 08:40 47.479329 -111.365064 4 3657ft 0kts
09-Jul-19 08:41 47.479329 -111.365064 4 3657ft 0kts
09-Jul-19 08:42 47.479329 -111.365064 4 3657ft 0kts
09-Jul-19 08:43 47.479329 -111.365064 4 3657ft 0kts
09-Jul-19 08:44 47.479329 -111.365064 4 3657ft 0kts
09-Jul-19 08:45 47.479329 -111.365064 4 3657ft 0kts
09-Jul-19 08:46 47.479329 -111.365064 4 3657ft 0kts
09-Jul-19 08:47 47.479329 -111.365064 4 3657ft 0kts
09-Jul-19 08:48 47.479329 -111.365064 4 3657ft 0kts
09-Jul-19 08:49 47.479329 -111.365064 4 3657ft 0kts
09-Jul-19 08:50 47.479329 -111.365064 4 3657ft 0kts

Navigation Log

Ident Type
Flight plan parsing failed, navigation log unavailable